Time;durP1;ratioP1;P1;durP2;ratioP2;P2;SDS_P1;SDS_P2;PMS_P1;PMS_P2;Temp;Humidity;BMP_temperature;BMP_pressure;BME280_temperature;BME280_humidity;BME280_pressure;Samples;Min_cycle;Max_cycle;Signal;HPM_P1;HPM_P2
2022/01/23 00:01:51;;;;;;;2.25;1.42;;;;;;;;;;4526099;28;20030;-61
2022/01/23 00:04:02;;;;;;;3.17;1.77;;;;;;;;;;4525976;28;20037;-61
2022/01/23 00:06:13;;;;;;;2.37;1.60;;;;;;;;;;4525350;28;20038;-61
2022/01/23 00:08:24;;;;;;;2.83;1.60;;;;;;;;;;4526088;28;20033;-61
2022/01/23 00:10:34;;;;;;;;;;;;;;;;;;4526451;28;20148;-60
2022/01/23 00:12:50;;;;;;;1.48;1.30;;;;;;;;;;4557994;28;19923;-62
2022/01/23 00:17:49;;;;;;;2.13;1.23;;;;;;;;;;4481053;28;20042;-60
2022/01/23 00:20:04;;;;;;;2.03;1.20;;;;;;;;;;4482484;28;20034;-60
2022/01/23 00:22:14;;;;;;;1.55;1.27;;;;;;;;;;4489684;28;20095;-61
2022/01/23 00:31:51;;;;;;;1.90;1.10;;;;;;;;;;4524052;28;20041;-60
2022/01/23 00:34:02;;;;;;;1.57;0.93;;;;;;;;;;4528333;28;20402;-61
2022/01/23 00:36:13;;;;;;;1.30;0.90;;;;;;;;;;4525574;28;20033;-61
2022/01/23 00:38:23;;;;;;;1.67;0.90;;;;;;;;;;4559502;28;20085;-61
2022/01/23 00:40:35;;;;;;;1.87;1.17;;;;;;;;;;4526018;28;20025;-61
2022/01/23 00:42:45;;;;;;;;;;;;;;;;;;4523947;28;20527;-61
2022/01/23 00:45:07;;;;;;;1.73;1.23;;;;;;;;;;4525466;28;19990;-60
2022/01/23 00:47:17;;;;;;;1.33;1.00;;;;;;;;;;4523645;28;20812;-60
2022/01/23 00:49:28;;;;;;;1.20;0.90;;;;;;;;;;4525969;28;20045;-61
2022/01/23 00:51:40;;;;;;;1.10;0.90;;;;;;;;;;4531361;28;20025;-61
2022/01/23 00:53:50;;;;;;;2.00;1.07;;;;;;;;;;4528319;28;20021;-61
2022/01/23 00:56:01;;;;;;;2.17;1.10;;;;;;;;;;4526137;28;20024;-61
2022/01/23 00:58:12;;;;;;;0.93;0.80;;;;;;;;;;4528752;28;20033;-60
2022/01/23 01:00:23;;;;;;;2.63;1.20;;;;;;;;;;4519078;28;21008;-61
2022/01/23 01:02:34;;;;;;;1.67;1.20;;;;;;;;;;4527407;28;20038;-61
2022/01/23 01:04:44;;;;;;;1.83;1.13;;;;;;;;;;4518631;28;20482;-61
2022/01/23 01:06:55;;;;;;;1.40;0.90;;;;;;;;;;4526352;28;20494;-60
2022/01/23 01:09:07;;;;;;;1.20;1.10;;;;;;;;;;4526962;28;20018;-60
2022/01/23 01:13:41;;;;;;;1.97;1.10;;;;;;;;;;4527135;28;20033;-63
2022/01/23 01:16:03;;;;;;;2.00;1.10;;;;;;;;;;4526778;28;20713;-61
2022/01/23 01:35:19;;;;;;;2.37;1.20;;;;;;;;;;4525654;28;20900;-61
2022/01/23 01:37:30;;;;;;;1.63;1.08;;;;;;;;;;4535096;28;21010;-61
2022/01/23 01:39:40;;;;;;;1.70;1.27;;;;;;;;;;4534962;28;20060;-61
2022/01/23 01:41:52;;;;;;;2.23;1.30;;;;;;;;;;4526474;28;20068;-60
2022/01/23 01:44:03;;;;;;;1.80;1.20;;;;;;;;;;4559344;28;20772;-62
2022/01/23 01:46:33;;;;;;;1.30;1.20;;;;;;;;;;4483655;28;20037;-60
2022/01/23 01:48:44;;;;;;;1.70;1.30;;;;;;;;;;4560487;28;20381;-60
2022/01/23 01:50:56;;;;;;;2.88;1.48;;;;;;;;;;4541997;28;20552;-60
2022/01/23 01:53:09;;;;;;;1.35;1.25;;;;;;;;;;4527476;28;20033;-61
2022/01/23 01:55:28;;;;;;;1.45;1.35;;;;;;;;;;4535061;28;20219;-61
2022/01/23 01:57:51;;;;;;;1.58;1.27;;;;;;;;;;4559825;28;20032;-60
2022/01/23 02:00:39;;;;;;;2.05;1.48;;;;;;;;;;4525963;28;20049;-60
2022/01/23 02:03:18;;;;;;;1.52;1.20;;;;;;;;;;4523535;28;20051;-61
2022/01/23 02:08:24;;;;;;;2.22;1.40;;;;;;;;;;4529890;28;20025;-61
2022/01/23 02:10:36;;;;;;;2.00;1.20;;;;;;;;;;4527980;28;20116;-61
2022/01/23 02:13:04;;;;;;;2.00;1.10;;;;;;;;;;4522605;28;20017;-61
2022/01/23 02:22:51;;;;;;;1.95;1.40;;;;;;;;;;4526604;28;20553;-61
2022/01/23 02:54:58;;;;;;;1.88;1.27;;;;;;;;;;4528626;28;20009;-61
2022/01/23 02:57:11;;;;;;;3.10;1.30;;;;;;;;;;4533910;28;20037;-61
2022/01/23 03:01:34;;;;;;;1.98;1.15;;;;;;;;;;4533984;28;19993;-61
2022/01/23 03:04:08;;;;;;;2.47;1.40;;;;;;;;;;4526215;28;21225;-60
2022/01/23 03:11:14;;;;;;;2.40;1.00;;;;;;;;;;4526761;28;20022;-60
2022/01/23 03:28:15;;;;;;;1.27;1.15;;;;;;;;;;4527380;28;20785;-61
2022/01/23 03:30:27;;;;;;;2.17;1.13;;;;;;;;;;4523779;28;20041;-61
2022/01/23 03:32:41;;;;;;;2.28;1.20;;;;;;;;;;4528173;28;20692;-60
2022/01/23 03:34:52;;;;;;;1.48;1.20;;;;;;;;;;4525194;28;20673;-61
2022/01/23 03:37:02;;;;;;;2.73;1.13;;;;;;;;;;4526491;28;20029;-60
2022/01/23 03:39:13;;;;;;;2.03;1.20;;;;;;;;;;4510161;28;20485;-61
2022/01/23 03:41:23;;;;;;;1.43;1.00;;;;;;;;;;4526675;28;20261;-61
2022/01/23 03:43:37;;;;;;;1.20;1.10;;;;;;;;;;4524629;28;20049;-60
2022/01/23 03:46:20;;;;;;;1.17;0.93;;;;;;;;;;4510607;28;21179;-61
2022/01/23 03:50:46;;;;;;;3.22;1.30;;;;;;;;;;4527811;28;20033;-60
2022/01/23 03:53:00;;;;;;;2.30;1.38;;;;;;;;;;4531752;28;20057;-61
2022/01/23 03:55:11;;;;;;;1.37;1.10;;;;;;;;;;4523367;28;20120;-61
2022/01/23 03:57:22;;;;;;;1.60;1.10;;;;;;;;;;4515768;28;20031;-60
2022/01/23 03:59:33;;;;;;;2.07;1.17;;;;;;;;;;4525697;28;20505;-61
2022/01/23 04:01:43;;;;;;;2.20;1.30;;;;;;;;;;4525419;28;20052;-61
2022/01/23 04:03:58;;;;;;;1.90;1.13;;;;;;;;;;4556807;28;20127;-60
2022/01/23 04:06:08;;;;;;;2.90;1.38;;;;;;;;;;4525027;28;20061;-60
2022/01/23 04:08:21;;;;;;;1.95;1.42;;;;;;;;;;4527401;28;20060;-60
2022/01/23 04:10:32;;;;;;;;;;;;;;;;;;4527401;28;20031;-61
2022/01/23 04:12:55;;;;;;;;;;;;;;;;;;4527210;28;20043;-61
2022/01/23 04:18:09;;;;;;;1.55;1.08;;;;;;;;;;4532848;28;20842;-60
2022/01/23 04:20:09;;;;;;;2.00;1.30;;;;;;;;;;4557522;28;20056;-60
2022/01/23 04:59:47;;;;;;;2.40;1.25;;;;;;;;;;4527958;28;20051;-61
2022/01/23 05:04:48;;;;;;;1.35;1.17;;;;;;;;;;4497031;28;20041;-60
2022/01/23 05:07:29;;;;;;;2.03;1.30;;;;;;;;;;4499797;28;20097;-60
2022/01/23 05:09:46;;;;;;;2.13;1.20;;;;;;;;;;4526345;28;20026;-61
2022/01/23 05:12:27;;;;;;;2.03;1.40;;;;;;;;;;4524294;28;20087;-60
2022/01/23 05:14:44;;;;;;;1.95;1.30;;;;;;;;;;4525547;28;20025;-61
2022/01/23 05:16:56;;;;;;;1.40;1.25;;;;;;;;;;4559035;28;20012;-61
2022/01/23 05:19:06;;;;;;;;;;;;;;;;;;4522166;28;20104;-60
2022/01/23 05:21:51;;;;;;;1.60;1.35;;;;;;;;;;4511438;28;19959;-61
2022/01/23 05:24:01;;;;;;;2.92;1.20;;;;;;;;;;4528156;28;20041;-61
2022/01/23 05:26:11;;;;;;;1.75;1.33;;;;;;;;;;4535130;28;20443;-62
2022/01/23 05:28:22;;;;;;;2.43;1.30;;;;;;;;;;4514696;28;20021;-60
2022/01/23 05:30:32;;;;;;;2.37;1.50;;;;;;;;;;4512771;28;29997;-61
2022/01/23 05:32:43;;;;;;;2.40;1.80;;;;;;;;;;4527486;28;20040;-61
2022/01/23 05:34:55;;;;;;;2.27;1.60;;;;;;;;;;4527184;28;20040;-61
2022/01/23 05:37:10;;;;;;;1.65;1.50;;;;;;;;;;4527654;28;20095;-60
2022/01/23 05:39:25;;;;;;;1.95;1.45;;;;;;;;;;4558900;28;20661;-61
2022/01/23 05:41:36;;;;;;;2.65;1.58;;;;;;;;;;4542311;28;20126;-61
2022/01/23 05:43:46;;;;;;;2.17;1.60;;;;;;;;;;4526675;28;25074;-61
2022/01/23 05:45:58;;;;;;;2.38;1.58;;;;;;;;;;4495977;28;20022;-61
2022/01/23 05:48:28;;;;;;;2.20;1.60;;;;;;;;;;4527636;28;20188;-60
2022/01/23 05:50:53;;;;;;;4.13;1.38;;;;;;;;;;4553498;28;20114;-60
2022/01/23 05:53:24;;;;;;;2.10;1.50;;;;;;;;;;4528453;28;20049;-60
2022/01/23 05:56:07;;;;;;;3.17;1.80;;;;;;;;;;4498989;28;20036;-60
2022/01/23 05:58:53;;;;;;;2.33;1.50;;;;;;;;;;4518483;28;20119;-60
2022/01/23 06:01:07;;;;;;;2.92;1.70;;;;;;;;;;4526359;28;20022;-61
2022/01/23 06:03:18;;;;;;;2.28;1.48;;;;;;;;;;4533123;28;20048;-61
2022/01/23 06:05:36;;;;;;;1.80;1.60;;;;;;;;;;4513327;28;20034;-60
2022/01/23 06:07:51;;;;;;;2.65;1.67;;;;;;;;;;4512383;28;20073;-60
2022/01/23 06:10:01;;;;;;;2.08;1.60;;;;;;;;;;4528831;28;20569;-60
2022/01/23 06:12:12;;;;;;;1.63;1.53;;;;;;;;;;4527699;28;20507;-60
2022/01/23 06:14:22;;;;;;;2.03;1.57;;;;;;;;;;4528129;28;20364;-61
2022/01/23 06:16:33;;;;;;;3.33;1.80;;;;;;;;;;4529065;28;20068;-60
2022/01/23 06:19:15;;;;;;;1.85;1.50;;;;;;;;;;4493725;28;20110;-60
2022/01/23 06:21:44;;;;;;;2.20;1.60;;;;;;;;;;4527443;28;20030;-60
2022/01/23 06:24:08;;;;;;;2.08;1.60;;;;;;;;;;4528405;28;20083;-60
2022/01/23 06:26:45;;;;;;;2.40;1.63;;;;;;;;;;4520648;28;20041;-61
2022/01/23 06:29:02;;;;;;;2.55;2.00;;;;;;;;;;4559182;28;20028;-60
2022/01/23 06:31:12;;;;;;;2.22;1.83;;;;;;;;;;4527457;28;20044;-60
2022/01/23 06:33:23;;;;;;;2.13;1.90;;;;;;;;;;4511622;28;20105;-61
2022/01/23 06:35:35;;;;;;;1.90;1.50;;;;;;;;;;4525225;28;20040;-61
2022/01/23 06:37:46;;;;;;;2.45;1.65;;;;;;;;;;4525092;28;20517;-60
2022/01/23 06:39:56;;;;;;;3.17;1.87;;;;;;;;;;4525694;28;20099;-61
2022/01/23 06:42:26;;;;;;;2.08;1.60;;;;;;;;;;4523719;28;20092;-61
2022/01/23 06:44:57;;;;;;;2.45;1.63;;;;;;;;;;4526705;28;20077;-61
2022/01/23 06:47:08;;;;;;;1.98;1.60;;;;;;;;;;4527677;28;20029;-60
2022/01/23 06:49:19;;;;;;;2.67;1.70;;;;;;;;;;4511001;28;20030;-60
2022/01/23 06:51:31;;;;;;;2.15;1.50;;;;;;;;;;4528005;28;20030;-60
2022/01/23 06:53:41;;;;;;;2.50;1.80;;;;;;;;;;4542710;28;20052;-60
2022/01/23 06:55:52;;;;;;;2.27;1.60;;;;;;;;;;4525068;28;20072;-61
2022/01/23 06:58:02;;;;;;;2.07;1.67;;;;;;;;;;4527514;28;20030;-60
2022/01/23 07:00:13;;;;;;;2.07;1.53;;;;;;;;;;4525912;28;20957;-59
2022/01/23 07:02:42;;;;;;;2.55;1.80;;;;;;;;;;4524972;28;20595;-60
2022/01/23 07:05:04;;;;;;;2.45;1.80;;;;;;;;;;4527471;28;20022;-60
2022/01/23 07:07:32;;;;;;;2.95;1.77;;;;;;;;;;4534050;28;20029;-61
2022/01/23 07:09:55;;;;;;;2.90;1.88;;;;;;;;;;4526819;28;20021;-61
2022/01/23 07:12:28;;;;;;;3.00;1.88;;;;;;;;;;4511755;28;20056;-62
2022/01/23 07:15:09;;;;;;;2.38;1.77;;;;;;;;;;4516379;28;20139;-62
2022/01/23 07:17:28;;;;;;;2.15;1.85;;;;;;;;;;4527434;28;20034;-62
2022/01/23 07:19:45;;;;;;;2.05;1.60;;;;;;;;;;4512353;28;20022;-61
2022/01/23 07:21:56;;;;;;;;;;;;;;;;;;4534574;28;20091;-62
2022/01/23 07:24:07;;;;;;;3.03;1.75;;;;;;;;;;4557844;28;19941;-62
2022/01/23 07:26:20;;;;;;;2.67;2.00;;;;;;;;;;4508563;28;20034;-62
2022/01/23 07:28:38;;;;;;;2.30;1.98;;;;;;;;;;4527333;28;20568;-61
2022/01/23 07:30:56;;;;;;;3.10;2.35;;;;;;;;;;4558949;28;20024;-62
2022/01/23 07:33:07;;;;;;;2.63;2.10;;;;;;;;;;4517004;28;20224;-62
2022/01/23 07:35:17;;;;;;;2.60;2.03;;;;;;;;;;4525208;28;20075;-62
2022/01/23 07:37:28;;;;;;;3.33;2.50;;;;;;;;;;4521696;28;20017;-62
2022/01/23 07:39:57;;;;;;;3.22;2.35;;;;;;;;;;4523215;28;20033;-62
2022/01/23 07:42:11;;;;;;;4.38;2.60;;;;;;;;;;4557883;28;20031;-62
2022/01/23 07:44:42;;;;;;;4.03;2.50;;;;;;;;;;4504076;28;20048;-62
2022/01/23 07:47:22;;;;;;;3.45;2.83;;;;;;;;;;4512171;28;20056;-62
2022/01/23 07:49:49;;;;;;;3.50;2.20;;;;;;;;;;4526101;28;20068;-62
2022/01/23 07:52:32;;;;;;;3.05;2.20;;;;;;;;;;4532373;28;20037;-62
2022/01/23 07:55:09;;;;;;;2.65;1.98;;;;;;;;;;4523733;28;20040;-62
2022/01/23 07:57:22;;;;;;;2.75;2.00;;;;;;;;;;4515817;28;20686;-63
2022/01/23 07:59:40;;;;;;;4.30;2.58;;;;;;;;;;4557527;27;20031;-62
2022/01/23 08:02:04;;;;;;;3.42;2.35;;;;;;;;;;4534384;28;20026;-62
2022/01/23 08:04:41;;;;;;;2.95;2.28;;;;;;;;;;4513791;28;21218;-62
2022/01/23 08:07:22;;;;;;;3.83;2.85;;;;;;;;;;4560664;28;20617;-62
2022/01/23 08:10:07;;;;;;;4.63;2.80;;;;;;;;;;4527026;28;20106;-62
2022/01/23 08:12:18;;;;;;;2.88;2.63;;;;;;;;;;4527163;28;20037;-62
2022/01/23 08:14:28;;;;;;;4.27;2.90;;;;;;;;;;4528175;28;21090;-62
2022/01/23 08:16:39;;;;;;;4.73;3.70;;;;;;;;;;4527402;28;35758;-61
2022/01/23 08:18:49;;;;;;;4.63;3.30;;;;;;;;;;4526356;28;21332;-62
2022/01/23 08:20:59;;;;;;;3.80;3.17;;;;;;;;;;4526891;28;38071;-62
2022/01/23 08:23:12;;;;;;;3.73;2.67;;;;;;;;;;4527438;28;20050;-62
2022/01/23 08:25:22;;;;;;;2.92;2.30;;;;;;;;;;4541504;28;21123;-61
2022/01/23 08:27:34;;;;;;;4.00;2.87;;;;;;;;;;4528092;28;20101;-62
2022/01/23 08:29:45;;;;;;;3.58;3.00;;;;;;;;;;4527689;28;21159;-61
2022/01/23 08:31:56;;;;;;;5.00;3.03;;;;;;;;;;4528997;28;20033;-61
2022/01/23 08:34:06;;;;;;;5.70;3.43;;;;;;;;;;4527631;28;23554;-61
2022/01/23 08:36:16;;;;;;;4.20;3.40;;;;;;;;;;4527370;28;20346;-62
2022/01/23 08:38:27;;;;;;;3.97;3.57;;;;;;;;;;4527669;28;20027;-62
2022/01/23 08:40:58;;;;;;;5.65;4.25;;;;;;;;;;4528111;28;20068;-62
2022/01/23 08:43:12;;;;;;;5.57;3.63;;;;;;;;;;4528567;28;20075;-62
2022/01/23 08:45:22;;;;;;;4.57;3.30;;;;;;;;;;4543834;28;21027;-62
2022/01/23 08:47:33;;;;;;;4.13;2.70;;;;;;;;;;4525915;28;20034;-62
2022/01/23 08:49:47;;;;;;;3.77;2.60;;;;;;;;;;4527844;28;20124;-62
2022/01/23 08:51:58;;;;;;;3.53;2.38;;;;;;;;;;4527992;28;20103;-62
2022/01/23 08:54:08;;;;;;;3.50;2.33;;;;;;;;;;4526413;28;20529;-61
2022/01/23 08:56:19;;;;;;;3.10;2.53;;;;;;;;;;4527682;28;26146;-62
2022/01/23 08:58:29;;;;;;;3.13;2.17;;;;;;;;;;4526531;28;24863;-62
2022/01/23 09:00:40;;;;;;;3.00;2.70;;;;;;;;;;4527171;28;20994;-62
2022/01/23 09:02:50;;;;;;;3.20;2.33;;;;;;;;;;4527859;28;20072;-62
2022/01/23 09:05:00;;;;;;;3.10;2.40;;;;;;;;;;4525467;28;23826;-62
2022/01/23 09:07:11;;;;;;;2.97;2.53;;;;;;;;;;4526613;28;20092;-62
2022/01/23 09:09:24;;;;;;;3.00;2.63;;;;;;;;;;4529026;28;20485;-62
2022/01/23 09:16:01;;;;;;;2.55;2.30;;;;;;;;;;4528623;28;20584;-62
2022/01/23 09:18:11;;;;;;;3.67;2.40;;;;;;;;;;4527561;28;20053;-62
2022/01/23 09:20:22;;;;;;;4.03;2.67;;;;;;;;;;4527289;28;20737;-61
2022/01/23 09:22:32;;;;;;;4.17;2.50;;;;;;;;;;4526337;28;28804;-62
2022/01/23 09:24:42;;;;;;;3.87;2.43;;;;;;;;;;4527781;28;20037;-62
2022/01/23 09:27:01;;;;;;;3.70;2.67;;;;;;;;;;4527620;28;20348;-62
2022/01/23 09:29:17;;;;;;;3.13;2.33;;;;;;;;;;4527847;28;20029;-62
2022/01/23 09:31:44;;;;;;;4.10;2.72;;;;;;;;;;4526452;28;20108;-62
2022/01/23 09:33:55;;;;;;;3.17;2.58;;;;;;;;;;4528138;28;20040;-62
2022/01/23 09:36:05;;;;;;;3.43;2.40;;;;;;;;;;4526947;28;20064;-61
2022/01/23 09:38:16;;;;;;;3.77;2.77;;;;;;;;;;4527035;28;20129;-62
2022/01/23 09:40:27;;;;;;;3.67;2.63;;;;;;;;;;4527206;28;20682;-62
2022/01/23 09:42:48;;;;;;;3.25;2.22;;;;;;;;;;4526947;28;20033;-62
2022/01/23 09:45:07;;;;;;;;;;;;;;;;;;4536487;28;20040;-62
2022/01/23 09:47:20;;;;;;;2.97;2.28;;;;;;;;;;4534426;28;19913;-62
2022/01/23 09:49:31;;;;;;;3.10;2.40;;;;;;;;;;4521762;28;20048;-61
2022/01/23 09:51:43;;;;;;;2.40;2.20;;;;;;;;;;4558693;28;20099;-62
2022/01/23 09:53:54;;;;;;;3.45;2.45;;;;;;;;;;4525698;28;20094;-62
2022/01/23 09:56:06;;;;;;;3.17;2.28;;;;;;;;;;4524753;28;20064;-61
2022/01/23 09:58:16;;;;;;;3.10;2.50;;;;;;;;;;4526303;28;20051;-62
2022/01/23 10:00:29;;;;;;;2.47;2.23;;;;;;;;;;4525529;28;20040;-62
2022/01/23 10:02:40;;;;;;;4.00;2.55;;;;;;;;;;4534893;28;20040;-62
2022/01/23 10:04:52;;;;;;;3.40;2.75;;;;;;;;;;4524291;28;20025;-62
2022/01/23 10:07:07;;;;;;;2.70;2.50;;;;;;;;;;4527035;28;20140;-62
2022/01/23 10:09:20;;;;;;;3.45;2.35;;;;;;;;;;4527540;28;20055;-61
2022/01/23 10:11:35;;;;;;;3.60;2.60;;;;;;;;;;4525738;28;20025;-62
2022/01/23 10:13:45;;;;;;;3.63;2.53;;;;;;;;;;4526794;28;20060;-62
2022/01/23 10:15:56;;;;;;;2.80;2.50;;;;;;;;;;4526509;28;20023;-62
2022/01/23 10:18:06;;;;;;;2.90;2.50;;;;;;;;;;4528347;28;20121;-62
2022/01/23 10:20:17;;;;;;;4.27;2.40;;;;;;;;;;4524064;28;40050;-61
2022/01/23 10:22:29;;;;;;;4.60;3.22;;;;;;;;;;4524150;28;20103;-61
2022/01/23 10:24:39;;;;;;;2.75;2.33;;;;;;;;;;4527482;28;20698;-62
2022/01/23 10:26:56;;;;;;;2.67;2.20;;;;;;;;;;4525902;28;20055;-62
2022/01/23 10:29:32;;;;;;;3.63;2.80;;;;;;;;;;4526094;28;20056;-62
2022/01/23 10:32:05;;;;;;;4.28;2.92;;;;;;;;;;4534582;28;20025;-63
2022/01/23 10:34:45;;;;;;;2.78;2.30;;;;;;;;;;4526192;28;20026;-62
2022/01/23 10:36:56;;;;;;;3.15;2.58;;;;;;;;;;4523707;28;20044;-62
2022/01/23 10:39:06;;;;;;;3.47;2.60;;;;;;;;;;4527689;28;30143;-62
2022/01/23 10:48:38;;;;;;;2.80;2.38;;;;;;;;;;4524485;28;20076;-62
2022/01/23 10:51:18;;;;;;;2.80;2.20;;;;;;;;;;4526438;28;20832;-62
2022/01/23 10:53:28;;;;;;;3.20;2.70;;;;;;;;;;4523711;28;20065;-61
2022/01/23 10:55:39;;;;;;;3.33;2.67;;;;;;;;;;4523878;28;35709;-62
2022/01/23 10:57:53;;;;;;;3.97;2.30;;;;;;;;;;4527794;28;20083;-62
2022/01/23 11:00:07;;;;;;;3.72;2.45;;;;;;;;;;4539551;28;20017;-61
2022/01/23 11:02:24;;;;;;;2.92;2.33;;;;;;;;;;4526695;28;20033;-62
2022/01/23 11:04:49;;;;;;;3.50;2.40;;;;;;;;;;4523437;28;20573;-61
2022/01/23 11:07:02;;;;;;;2.83;2.42;;;;;;;;;;4556725;28;20128;-62
2022/01/23 11:09:13;;;;;;;2.78;2.25;;;;;;;;;;4526268;28;20656;-62
2022/01/23 11:11:38;;;;;;;2.90;2.30;;;;;;;;;;4524510;28;20105;-62
2022/01/23 11:19:03;;;;;;;2.17;1.98;;;;;;;;;;4524682;28;20871;-62
2022/01/23 11:21:16;;;;;;;2.50;1.87;;;;;;;;;;4509322;28;20121;-63
2022/01/23 11:23:27;;;;;;;2.65;1.85;;;;;;;;;;4527419;28;20124;-62
2022/01/23 11:25:43;;;;;;;2.38;1.88;;;;;;;;;;4524888;28;20033;-62
2022/01/23 11:28:01;;;;;;;3.47;2.22;;;;;;;;;;4526154;28;20620;-62
2022/01/23 11:30:13;;;;;;;3.10;2.22;;;;;;;;;;4526694;28;20029;-62
2022/01/23 11:32:27;;;;;;;3.20;2.20;;;;;;;;;;4557913;28;20658;-61
2022/01/23 11:34:39;;;;;;;3.88;2.55;;;;;;;;;;4523541;28;20232;-60
2022/01/23 11:36:51;;;;;;;3.08;2.22;;;;;;;;;;4524356;28;20119;-61
2022/01/23 11:39:13;;;;;;;3.15;2.25;;;;;;;;;;4524079;28;20017;-61
2022/01/23 11:54:14;;;;;;;2.00;1.80;;;;;;;;;;4503816;28;20128;-61
2022/01/23 11:56:24;;;;;;;2.47;1.93;;;;;;;;;;4505656;28;20136;-62
2022/01/23 11:58:36;;;;;;;2.23;2.00;;;;;;;;;;4504386;28;20041;-62
2022/01/23 12:00:47;;;;;;;4.45;2.83;;;;;;;;;;4505542;28;20037;-61
2022/01/23 12:03:17;;;;;;;3.20;2.10;;;;;;;;;;4506343;28;31692;-61
2022/01/23 12:05:29;;;;;;;3.05;2.10;;;;;;;;;;4517780;28;20033;-63
2022/01/23 12:07:41;;;;;;;2.42;1.92;;;;;;;;;;4523024;28;20022;-65
2022/01/23 12:10:20;;;;;;;2.58;2.20;;;;;;;;;;4523824;28;20026;-63
2022/01/23 12:12:39;;;;;;;3.40;2.15;;;;;;;;;;4518322;28;20158;-64
2022/01/23 12:17:05;;;;;;;2.20;2.00;;;;;;;;;;4523310;28;20036;-64
2022/01/23 12:19:18;;;;;;;2.42;1.90;;;;;;;;;;4507602;28;20058;-63
2022/01/23 12:21:30;;;;;;;2.38;1.98;;;;;;;;;;4505343;28;20033;-64
2022/01/23 12:23:57;;;;;;;2.13;1.90;;;;;;;;;;4524620;28;20037;-63
2022/01/23 12:26:08;;;;;;;2.53;1.83;;;;;;;;;;4526597;28;20123;-64
2022/01/23 12:28:20;;;;;;;2.50;2.10;;;;;;;;;;4525232;28;20527;-64
2022/01/23 12:30:33;;;;;;;2.53;1.95;;;;;;;;;;4523421;28;20088;-64
2022/01/23 12:32:44;;;;;;;2.10;1.90;;;;;;;;;;4525148;28;20017;-64
2022/01/23 12:34:59;;;;;;;2.80;2.00;;;;;;;;;;4524623;28;20037;-66
2022/01/23 12:37:10;;;;;;;2.55;2.00;;;;;;;;;;4524230;28;20033;-65
2022/01/23 12:39:20;;;;;;;2.10;1.70;;;;;;;;;;4523878;28;27502;-65
2022/01/23 12:41:38;;;;;;;1.80;1.70;;;;;;;;;;4524797;28;20032;-66
2022/01/23 12:43:55;;;;;;;2.10;1.80;;;;;;;;;;4524389;28;20187;-64
2022/01/23 12:46:08;;;;;;;1.60;1.42;;;;;;;;;;4516491;28;20029;-64
2022/01/23 12:48:24;;;;;;;2.53;1.63;;;;;;;;;;4525192;28;20544;-63
2022/01/23 12:50:44;;;;;;;1.50;1.40;;;;;;;;;;4526951;28;21490;-66
2022/01/23 12:52:55;;;;;;;1.63;1.50;;;;;;;;;;4524582;28;20703;-63
2022/01/23 12:55:06;;;;;;;1.90;1.70;;;;;;;;;;4523086;28;22134;-63
2022/01/23 12:57:19;;;;;;;1.60;1.50;;;;;;;;;;4526859;28;20030;-64
2022/01/23 12:59:33;;;;;;;2.28;1.70;;;;;;;;;;4525005;28;20033;-64
2022/01/23 13:01:46;;;;;;;1.73;1.55;;;;;;;;;;4526452;28;20029;-64
2022/01/23 13:04:02;;;;;;;2.05;1.70;;;;;;;;;;4526375;28;20038;-63
2022/01/23 13:06:13;;;;;;;2.65;2.20;;;;;;;;;;4515032;28;20124;-64
2022/01/23 13:08:28;;;;;;;4.30;2.72;;;;;;;;;;4526024;28;20021;-64
2022/01/23 13:13:04;;;;;;;2.80;1.90;;;;;;;;;;4526843;28;20029;-63
2022/01/23 13:28:15;;;;;;;3.50;2.53;;;;;;;;;;4526741;28;20036;-64
2022/01/23 13:30:25;;;;;;;2.50;2.10;;;;;;;;;;4526579;28;20021;-63
2022/01/23 13:32:43;;;;;;;2.30;1.80;;;;;;;;;;4533015;28;20964;-63
2022/01/23 13:35:04;;;;;;;2.55;2.10;;;;;;;;;;4527262;28;20025;-63
2022/01/23 13:37:18;;;;;;;3.15;2.33;;;;;;;;;;4525452;28;20030;-65
2022/01/23 13:39:34;;;;;;;3.53;2.15;;;;;;;;;;4525949;28;20195;-64
2022/01/23 13:42:19;;;;;;;2.28;1.90;;;;;;;;;;4526424;28;20030;-64
2022/01/23 13:52:19;;;;;;;2.40;1.90;;;;;;;;;;4524665;28;21066;-64
2022/01/23 13:59:23;;;;;;;2.67;2.40;;;;;;;;;;4526245;28;20439;-61
2022/01/23 14:01:48;;;;;;;3.28;2.50;;;;;;;;;;4526721;28;20124;-61
2022/01/23 14:03:58;;;;;;;1.85;1.65;;;;;;;;;;4525548;28;20142;-61
2022/01/23 14:06:10;;;;;;;2.30;1.80;;;;;;;;;;4526688;28;20037;-61
2022/01/23 14:08:20;;;;;;;1.73;1.63;;;;;;;;;;4525852;28;20018;-63
2022/01/23 14:10:36;;;;;;;2.60;1.97;;;;;;;;;;4526259;28;20030;-64
2022/01/23 14:12:48;;;;;;;2.20;1.70;;;;;;;;;;4527595;28;20033;-63
2022/01/23 14:15:05;;;;;;;2.78;2.30;;;;;;;;;;4526762;28;20748;-64
2022/01/23 14:17:15;;;;;;;3.10;2.47;;;;;;;;;;4525105;28;20606;-62
2022/01/23 14:19:28;;;;;;;2.58;2.30;;;;;;;;;;4523811;28;20095;-62
2022/01/23 14:21:43;;;;;;;2.45;2.05;;;;;;;;;;4529653;28;20052;-63
2022/01/23 14:23:54;;;;;;;2.90;2.20;;;;;;;;;;4524904;28;20511;-64
2022/01/23 14:26:10;;;;;;;2.13;1.75;;;;;;;;;;4533028;28;20029;-64
2022/01/23 14:28:24;;;;;;;2.17;1.98;;;;;;;;;;4533488;28;20022;-65
2022/01/23 14:30:44;;;;;;;2.60;1.83;;;;;;;;;;4521469;28;20672;-63
2022/01/23 14:33:04;;;;;;;2.70;2.10;;;;;;;;;;4503496;28;20037;-65
2022/01/23 14:35:25;;;;;;;2.80;1.88;;;;;;;;;;4509786;28;20029;-66
2022/01/23 14:37:36;;;;;;;2.67;1.90;;;;;;;;;;4522632;28;20536;-64
2022/01/23 14:39:46;;;;;;;2.20;1.93;;;;;;;;;;4521280;28;20041;-66
2022/01/23 14:42:09;;;;;;;2.17;1.80;;;;;;;;;;4511182;28;20045;-63
2022/01/23 14:44:25;;;;;;;2.45;2.00;;;;;;;;;;4509014;28;20665;-67
2022/01/23 14:46:35;;;;;;;2.55;1.85;;;;;;;;;;4504237;28;20537;-63
2022/01/23 14:48:49;;;;;;;2.03;1.80;;;;;;;;;;4521865;28;23074;-65
2022/01/23 14:51:03;;;;;;;2.13;1.70;;;;;;;;;;4530326;28;20029;-64
2022/01/23 14:53:18;;;;;;;1.50;1.40;;;;;;;;;;4522028;28;20060;-63
2022/01/23 14:55:29;;;;;;;2.15;1.63;;;;;;;;;;4502259;28;20707;-64
2022/01/23 14:57:41;;;;;;;1.77;1.40;;;;;;;;;;4494335;28;20883;-62
2022/01/23 14:59:51;;;;;;;2.20;1.58;;;;;;;;;;4523414;28;20598;-62
2022/01/23 15:02:04;;;;;;;2.90;1.60;;;;;;;;;;4498832;28;20087;-63
2022/01/23 15:04:15;;;;;;;1.65;1.50;;;;;;;;;;4525612;28;20812;-65
2022/01/23 15:06:26;;;;;;;1.52;1.38;;;;;;;;;;4525084;28;20761;-64
2022/01/23 15:08:38;;;;;;;1.53;1.20;;;;;;;;;;4521851;28;20025;-63
2022/01/23 15:10:50;;;;;;;1.45;1.25;;;;;;;;;;4532766;28;21146;-66
2022/01/23 15:13:01;;;;;;;1.42;1.05;;;;;;;;;;4523937;28;20033;-65
2022/01/23 15:15:11;;;;;;;1.47;1.20;;;;;;;;;;4524153;28;20045;-62
2022/01/23 15:17:22;;;;;;;1.73;1.40;;;;;;;;;;4523288;28;24462;-62
2022/01/23 15:19:33;;;;;;;1.40;1.20;;;;;;;;;;4524396;28;20120;-62
2022/01/23 15:21:44;;;;;;;1.20;1.10;;;;;;;;;;4522270;28;20018;-62
2022/01/23 15:23:56;;;;;;;1.50;1.20;;;;;;;;;;4524152;28;20076;-61
2022/01/23 15:26:06;;;;;;;1.65;1.10;;;;;;;;;;4524882;28;20022;-61
2022/01/23 15:28:17;;;;;;;1.80;1.17;;;;;;;;;;4524563;28;20029;-61
2022/01/23 15:30:27;;;;;;;1.50;0.93;;;;;;;;;;4522657;28;20041;-61
2022/01/23 15:32:38;;;;;;;1.23;1.00;;;;;;;;;;4514560;28;20022;-62
2022/01/23 15:34:49;;;;;;;1.10;0.97;;;;;;;;;;4522006;28;20561;-62
2022/01/23 15:37:00;;;;;;;1.25;1.08;;;;;;;;;;4524772;28;20033;-61
2022/01/23 15:39:10;;;;;;;1.90;1.50;;;;;;;;;;4524563;28;20482;-61
2022/01/23 15:41:21;;;;;;;2.30;1.90;;;;;;;;;;4522292;28;20025;-64
2022/01/23 15:43:32;;;;;;;2.50;1.90;;;;;;;;;;4503355;28;20443;-61
2022/01/23 15:45:45;;;;;;;2.75;2.13;;;;;;;;;;4540563;28;20044;-64
2022/01/23 15:47:55;;;;;;;3.50;2.70;;;;;;;;;;4508357;28;20033;-61
2022/01/23 15:50:08;;;;;;;2.72;2.05;;;;;;;;;;4517025;28;20025;-60
2022/01/23 15:52:19;;;;;;;3.78;2.70;;;;;;;;;;4522248;28;20036;-60
2022/01/23 15:54:30;;;;;;;1.70;1.60;;;;;;;;;;4521940;28;42219;-60
2022/01/23 15:56:41;;;;;;;2.03;1.35;;;;;;;;;;4524128;28;20057;-62
2022/01/23 15:58:52;;;;;;;;;;;;;;;;;;4512355;27;20493;-61
2022/01/23 16:01:03;;;;;;;1.50;1.30;;;;;;;;;;4518020;28;19967;-61
2022/01/23 16:03:13;;;;;;;3.03;1.90;;;;;;;;;;4487561;28;20117;-63
2022/01/23 16:05:24;;;;;;;1.93;1.67;;;;;;;;;;4524269;28;20280;-61
2022/01/23 16:07:34;;;;;;;1.70;1.40;;;;;;;;;;4525158;28;20029;-62
2022/01/23 16:09:46;;;;;;;1.40;1.13;;;;;;;;;;4525052;28;24071;-61
2022/01/23 16:11:56;;;;;;;1.55;1.20;;;;;;;;;;4519760;27;20039;-62
2022/01/23 16:14:07;;;;;;;2.00;1.50;;;;;;;;;;4524952;28;20032;-62
2022/01/23 16:16:18;;;;;;;2.00;1.60;;;;;;;;;;4504346;28;20115;-61
2022/01/23 16:18:28;;;;;;;1.58;1.40;;;;;;;;;;4502252;28;20381;-63
2022/01/23 16:20:40;;;;;;;2.33;1.90;;;;;;;;;;4506194;28;20060;-62
2022/01/23 16:22:50;;;;;;;4.68;3.40;;;;;;;;;;4527032;28;20328;-61
2022/01/23 16:25:00;;;;;;;5.20;3.60;;;;;;;;;;4558900;28;28113;-63
2022/01/23 16:27:11;;;;;;;4.90;3.80;;;;;;;;;;4526501;28;30588;-63
2022/01/23 16:29:24;;;;;;;5.03;3.90;;;;;;;;;;4524263;28;20377;-63
2022/01/23 16:31:35;;;;;;;5.05;4.07;;;;;;;;;;4527349;28;20025;-66
2022/01/23 16:33:45;;;;;;;4.73;3.73;;;;;;;;;;4515326;28;20407;-62
2022/01/23 16:35:56;;;;;;;4.90;3.13;;;;;;;;;;4528277;28;20277;-62
2022/01/23 16:38:07;;;;;;;3.13;2.40;;;;;;;;;;4527639;28;20639;-63
2022/01/23 16:40:17;;;;;;;2.93;1.90;;;;;;;;;;4529828;28;20025;-62
2022/01/23 16:42:28;;;;;;;3.00;2.00;;;;;;;;;;4526048;28;20405;-62
2022/01/23 16:44:38;;;;;;;1.77;1.53;;;;;;;;;;4526414;28;20200;-63
2022/01/23 16:46:49;;;;;;;1.60;1.40;;;;;;;;;;4523824;28;20436;-63
2022/01/23 16:49:00;;;;;;;1.90;1.30;;;;;;;;;;4529161;28;20165;-64
2022/01/23 16:51:10;;;;;;;3.10;1.80;;;;;;;;;;4527053;28;20079;-63